Página principal
METAR-TAF:

METAR-TAF

Aeroportos :

El Hierro, Espanha

latitude: 27-49N, longitude: 017-53W, altura: 32 m

Observação actual do tempo

O boletim foi feito há 33 minutos, às 11:00 UTC
Vento 14 kt de norte
Temperatura 24°C
Humidade 65%
Pressão 1017 hPa
Visibilidade 10 km ou mais
Poucas nuvensa uma altura de 3000 ft

METAR: GCHI 191100Z 35014KT 9999 FEW030 24/17 Q1017

Hora: 12:33 (11:33 UTC)

Previsão

O boletim foi feito há 3 horas e 33 minutos, às 08:00 UTC
Previsão válida de 19 às 09 UTC a 20 às 09 UTC
Vento 14 kt de norte
Visibilidade 10 km ou mais
Nuvens dispersasa uma altura de 3000 ft

TAF: GCHI 190800Z 1909/2009 36014KT 9999 SCT030 TX25/1914Z TN23/2006Z

Observações e previsões do tempo de mais de 4000 aeroportos (mensagens METAR e TAF).

As estações disponíveis são os pontos amarelos e vermelhos sobre o mapa.

Mova o rato sobre o mapa para ver o nome da estação.

Depois clique no ponto para visualizar as observações e previsões meteorológicas.

Para alterar o mapa : clique nos botões verdes com uma cruz preta para aumentar o zoom; no botão verde com uma pitada de zoom; ou nas setas verdes para mapas adjacentes.


METAR-TAF: